createdAt,value
2023-01-21T00:00:27.119Z,7.80
2023-01-21T00:03:14.470Z,7.13
2023-01-21T00:06:01.899Z,7.07
2023-01-21T00:08:49.241Z,5.53
2023-01-21T00:11:36.629Z,6.03
2023-01-21T00:14:25.385Z,5.80
2023-01-21T00:17:12.395Z,5.17
2023-01-21T00:19:59.766Z,5.40
2023-01-21T00:22:47.327Z,5.07
2023-01-21T00:25:34.709Z,6.63
2023-01-21T00:28:22.293Z,6.10
2023-01-21T00:31:12.688Z,5.67
2023-01-21T00:33:59.787Z,6.07
2023-01-21T00:36:47.372Z,6.33
2023-01-21T00:39:35.027Z,4.70
2023-01-21T00:42:22.431Z,6.33
2023-01-21T00:45:11.161Z,5.60
2023-01-21T00:47:59.635Z,5.60
2023-01-21T00:50:46.890Z,5.30
2023-01-21T00:53:35.889Z,4.80
2023-01-21T00:56:23.270Z,6.77
2023-01-21T00:59:10.840Z,6.90
2023-01-21T01:01:58.579Z,6.00
2023-01-21T01:04:47.411Z,5.80
2023-01-21T01:07:34.617Z,5.27
2023-01-21T01:10:22.225Z,6.50
2023-01-21T01:13:09.495Z,6.37
2023-01-21T01:15:58.637Z,5.27
2023-01-21T01:18:46.354Z,5.27
2023-01-21T01:21:35.338Z,5.60
2023-01-21T01:24:22.387Z,5.83
2023-01-21T01:27:09.751Z,5.30
2023-01-21T01:29:56.877Z,5.37
2023-01-21T01:32:44.322Z,5.90
2023-01-21T01:35:33.664Z,5.20
2023-01-21T01:38:24.017Z,5.73
2023-01-21T01:41:16.082Z,6.60
2023-01-21T01:44:04.868Z,7.63
2023-01-21T01:46:52.397Z,7.80
2023-01-21T01:49:39.967Z,6.93
2023-01-21T01:52:28.404Z,8.30
2023-01-21T01:55:17.319Z,6.97
2023-01-21T01:58:07.014Z,7.57
2023-01-21T02:00:54.588Z,8.13
2023-01-21T02:03:45.277Z,6.30
2023-01-21T02:06:32.854Z,6.87
2023-01-21T02:09:20.349Z,7.33
2023-01-21T02:12:09.356Z,6.93
2023-01-21T02:14:56.655Z,6.70
2023-01-21T02:17:56.429Z,7.27
2023-01-21T02:21:18.231Z,7.83
2023-01-21T02:24:34.714Z,7.93
2023-01-21T02:27:54.608Z,8.17
2023-01-21T02:30:57.599Z,7.43
2023-01-21T02:34:02.187Z,8.43
2023-01-21T02:37:00.146Z,7.97
2023-01-21T02:40:08.721Z,7.40
2023-01-21T02:43:02.870Z,7.03
2023-01-21T02:45:56.273Z,8.10
2023-01-21T02:48:49.321Z,7.80
2023-01-21T02:51:37.954Z,7.03
2023-01-21T02:54:51.728Z,7.57
2023-01-21T02:57:44.068Z,7.47
2023-01-21T03:00:42.545Z,8.00
2023-01-21T03:03:50.005Z,8.30
2023-01-21T03:06:51.876Z,8.60
2023-01-21T03:09:39.997Z,7.97
2023-01-21T03:12:35.972Z,6.83
2023-01-21T03:15:45.363Z,7.27
2023-01-21T03:18:37.232Z,7.90
2023-01-21T03:21:27.287Z,7.47
2023-01-21T03:24:16.691Z,7.50
2023-01-21T03:27:06.068Z,5.70
2023-01-21T03:29:59.069Z,7.10
2023-01-21T03:32:51.326Z,7.07
2023-01-21T03:35:43.987Z,7.73
2023-01-21T03:38:37.397Z,7.20
2023-01-21T03:41:33.968Z,7.63
2023-01-21T03:44:21.724Z,7.53
2023-01-21T03:47:18.542Z,6.53
2023-01-21T03:50:08.802Z,7.93
2023-01-21T03:52:56.264Z,7.90
2023-01-21T03:55:43.613Z,7.27
2023-01-21T03:58:32.527Z,6.93
2023-01-21T04:01:19.696Z,6.27
2023-01-21T04:04:07.357Z,7.83
2023-01-21T04:06:54.869Z,7.50
2023-01-21T04:09:42.771Z,6.77
2023-01-21T04:12:30.058Z,6.93
2023-01-21T04:15:18.881Z,6.87
2023-01-21T04:18:06.119Z,5.87
2023-01-21T04:20:53.446Z,4.93
2023-01-21T04:23:40.719Z,5.93
2023-01-21T04:26:28.141Z,6.53
2023-01-21T04:29:15.575Z,4.77
2023-01-21T04:32:04.389Z,6.37
2023-01-21T04:34:51.573Z,5.50
2023-01-21T04:37:39.058Z,4.43
2023-01-21T04:40:26.639Z,5.93
2023-01-21T04:43:14.080Z,5.00
2023-01-21T04:46:01.578Z,5.03
2023-01-21T04:48:50.063Z,3.60
2023-01-21T04:51:37.200Z,4.60
2023-01-21T04:54:24.577Z,4.77
2023-01-21T04:57:12.555Z,4.67
2023-01-21T05:00:00.184Z,4.57
2023-01-21T05:02:47.760Z,4.57
2023-01-21T05:05:36.376Z,4.33
2023-01-21T05:08:23.458Z,4.30
2023-01-21T05:11:13.018Z,4.10
2023-01-21T05:14:00.097Z,4.17
2023-01-21T05:16:47.613Z,4.10
2023-01-21T05:19:35.008Z,4.77
2023-01-21T05:22:23.983Z,4.53
2023-01-21T05:25:11.357Z,3.93
2023-01-21T05:27:58.372Z,5.00
2023-01-21T05:30:46.003Z,5.40
2023-01-21T05:33:34.443Z,4.40
2023-01-21T05:36:21.810Z,4.87
2023-01-21T05:39:10.753Z,5.10
2023-01-21T05:41:58.272Z,4.70
2023-01-21T05:44:45.676Z,4.70
2023-01-21T05:47:33.093Z,5.30
2023-01-21T05:50:20.596Z,4.47
2023-01-21T05:53:08.124Z,4.83
2023-01-21T05:55:57.780Z,5.40
2023-01-21T05:58:45.126Z,5.30
2023-01-21T06:01:32.599Z,5.70
2023-01-21T06:04:22.375Z,4.33
2023-01-21T06:07:11.095Z,5.40
2023-01-21T06:09:58.211Z,4.97
2023-01-21T06:12:46.823Z,5.10
2023-01-21T06:15:34.199Z,6.30
2023-01-21T06:18:21.733Z,5.77
2023-01-21T06:21:09.055Z,5.10
2023-01-21T06:23:57.345Z,6.00
2023-01-21T06:26:44.555Z,5.47
2023-01-21T06:29:33.267Z,4.40
2023-01-21T06:32:20.258Z,6.23
2023-01-21T06:35:08.093Z,5.67
2023-01-21T06:37:55.676Z,6.90
2023-01-21T06:40:44.070Z,5.63
2023-01-21T06:43:31.593Z,6.23
2023-01-21T06:46:20.217Z,6.10
2023-01-21T06:49:07.530Z,5.93
2023-01-21T06:51:56.326Z,5.60
2023-01-21T06:54:43.416Z,4.53
2023-01-21T06:57:31.366Z,6.80
2023-01-21T07:00:20.007Z,6.97
2023-01-21T07:03:09.494Z,7.13
2023-01-21T07:05:56.708Z,7.53
2023-01-21T07:08:43.972Z,5.97
2023-01-21T07:11:31.996Z,7.53
2023-01-21T07:14:19.083Z,7.77
2023-01-21T07:17:06.480Z,6.00
2023-01-21T07:19:55.368Z,7.00
2023-01-21T07:22:42.976Z,6.97
2023-01-21T07:25:30.305Z,6.50
2023-01-21T07:28:17.738Z,7.73
2023-01-21T07:31:05.520Z,7.13
2023-01-21T07:33:53.433Z,6.57
2023-01-21T07:36:42.124Z,8.17
2023-01-21T07:39:29.306Z,8.07
2023-01-21T07:42:16.802Z,6.40
2023-01-21T07:45:04.481Z,8.17
2023-01-21T07:47:51.887Z,8.60
2023-01-21T07:50:39.447Z,7.63
2023-01-21T07:53:28.376Z,7.93
2023-01-21T07:56:16.269Z,8.23
2023-01-21T07:59:03.666Z,8.00
2023-01-21T08:01:51.274Z,6.50
2023-01-21T08:04:38.973Z,8.70
2023-01-21T08:07:26.306Z,8.60
2023-01-21T08:10:15.397Z,7.93
2023-01-21T08:13:03.698Z,7.80
2023-01-21T08:15:51.937Z,8.93
2023-01-21T08:18:39.395Z,8.63
2023-01-21T08:21:27.074Z,9.13
2023-01-21T08:24:14.693Z,9.77
2023-01-21T08:27:03.248Z,8.40
2023-01-21T08:29:50.534Z,7.90
2023-01-21T08:32:37.877Z,8.70
2023-01-21T08:35:25.265Z,6.73
2023-01-21T08:38:12.726Z,7.93
2023-01-21T08:41:00.061Z,8.37
2023-01-21T08:43:49.084Z,7.70
2023-01-21T08:46:36.434Z,8.37
2023-01-21T08:49:24.102Z,7.80
2023-01-21T08:52:11.260Z,8.27
2023-01-21T08:54:58.387Z,6.43
2023-01-21T08:57:45.923Z,8.00
2023-01-21T09:00:34.802Z,8.20
2023-01-21T09:03:22.171Z,7.70
2023-01-21T09:06:09.850Z,8.00
2023-01-21T09:08:58.298Z,6.73
2023-01-21T09:11:45.742Z,7.97
2023-01-21T09:14:32.929Z,7.47
2023-01-21T09:17:22.722Z,7.27
2023-01-21T09:20:11.769Z,7.27
2023-01-21T09:22:59.311Z,6.93
2023-01-21T09:25:46.659Z,6.37
2023-01-21T09:28:36.922Z,7.40
2023-01-21T09:31:25.786Z,5.83
2023-01-21T09:34:14.158Z,8.27
2023-01-21T09:37:02.016Z,7.53
2023-01-21T09:39:49.364Z,7.97
2023-01-21T09:42:36.780Z,6.63
2023-01-21T09:45:24.836Z,6.33
2023-01-21T09:48:15.971Z,5.83
2023-01-21T09:51:12.650Z,6.97
2023-01-21T09:54:00.278Z,7.23
2023-01-21T09:57:13.291Z,7.63
2023-01-21T10:00:13.399Z,7.60
2023-01-21T10:03:07.654Z,7.37
2023-01-21T10:06:29.772Z,6.63
2023-01-21T10:09:37.163Z,6.73
2023-01-21T10:12:35.461Z,7.13
2023-01-21T10:15:40.728Z,8.37
2023-01-21T10:18:31.088Z,7.00
2023-01-21T10:21:30.490Z,7.10
2023-01-21T10:24:25.165Z,6.50
2023-01-21T10:27:16.866Z,6.70
2023-01-21T10:30:11.155Z,8.57
2023-01-21T10:32:58.436Z,6.77
2023-01-21T10:36:09.395Z,7.63
2023-01-21T10:39:05.586Z,7.70
2023-01-21T10:42:33.590Z,6.33
2023-01-21T10:45:36.661Z,7.33
2023-01-21T10:48:35.782Z,7.73
2023-01-21T10:51:29.549Z,6.90
2023-01-21T10:54:23.254Z,6.03
2023-01-21T10:57:24.232Z,7.57
2023-01-21T11:00:20.455Z,6.23
2023-01-21T11:03:15.736Z,6.93
2023-01-21T11:06:06.849Z,6.17
2023-01-21T11:08:58.405Z,6.77
2023-01-21T11:11:46.443Z,6.70
2023-01-21T11:14:34.883Z,7.13
2023-01-21T11:17:36.620Z,5.80
2023-01-21T11:20:29.197Z,6.27
2023-01-21T11:23:28.169Z,6.57
2023-01-21T11:26:19.646Z,6.37
2023-01-21T11:29:08.946Z,5.97
2023-01-21T11:32:04.274Z,6.90
2023-01-21T11:34:57.533Z,6.33
2023-01-21T11:37:46.851Z,6.37
2023-01-21T11:40:34.285Z,6.20
2023-01-21T11:43:35.499Z,6.27
2023-01-21T11:46:36.625Z,5.80
2023-01-21T11:49:27.044Z,6.60
2023-01-21T11:52:18.403Z,6.40
2023-01-21T11:55:19.730Z,6.67
2023-01-21T11:58:16.123Z,6.30
2023-01-21T12:01:06.516Z,6.20
2023-01-21T12:03:57.443Z,6.33
2023-01-21T12:06:47.823Z,6.07
2023-01-21T12:09:36.780Z,6.10
2023-01-21T12:12:33.101Z,4.30
2023-01-21T12:15:32.904Z,4.53
2023-01-21T12:18:33.776Z,6.30
2023-01-21T12:21:30.341Z,5.63
2023-01-21T12:24:32.781Z,6.30
2023-01-21T12:27:28.853Z,5.60
2023-01-21T12:30:25.733Z,4.90
2023-01-21T12:33:17.921Z,3.43
2023-01-21T12:36:11.991Z,4.53
2023-01-21T12:39:14.359Z,3.27
2023-01-21T12:42:08.900Z,4.97
2023-01-21T12:45:02.402Z,3.80
2023-01-21T12:47:55.239Z,4.40
2023-01-21T12:50:48.120Z,3.37
2023-01-21T12:53:41.553Z,3.93
2023-01-21T12:56:36.102Z,4.77
2023-01-21T12:59:30.433Z,3.17
2023-01-21T13:02:25.995Z,3.50
2023-01-21T13:05:16.440Z,3.60
2023-01-21T13:08:18.462Z,3.80
2023-01-21T13:11:12.652Z,2.83
2023-01-21T13:14:19.653Z,3.03
2023-01-21T13:17:16.066Z,2.67
2023-01-21T13:20:15.649Z,3.53
2023-01-21T13:23:09.137Z,2.30
2023-01-21T13:26:04.555Z,2.73
2023-01-21T13:28:56.969Z,3.03
2023-01-21T13:31:51.146Z,2.07
2023-01-21T13:34:48.486Z,2.73
2023-01-21T13:37:43.813Z,2.90
2023-01-21T13:40:41.874Z,1.37
2023-01-21T13:43:54.344Z,3.33
2023-01-21T13:46:55.096Z,2.57
2023-01-21T13:50:06.625Z,2.33
2023-01-21T13:53:20.850Z,2.50
2023-01-21T13:56:24.632Z,3.90
2023-01-21T13:59:16.910Z,3.10
2023-01-21T14:02:10.790Z,2.33
2023-01-21T14:05:08.095Z,2.53
2023-01-21T14:07:59.865Z,2.17
2023-01-21T14:10:51.658Z,2.63
2023-01-21T14:14:08.673Z,2.67
2023-01-21T14:17:22.209Z,2.43
2023-01-21T14:20:41.292Z,2.60
2023-01-21T14:23:49.627Z,3.00
2023-01-21T14:27:12.452Z,2.77
2023-01-21T14:30:09.953Z,2.63
2023-01-21T14:33:01.334Z,2.70
2023-01-21T14:35:55.689Z,2.67
2023-01-21T14:38:57.636Z,2.90
2023-01-21T14:42:03.795Z,2.30
2023-01-21T14:45:05.522Z,2.13
2023-01-21T14:47:54.623Z,2.03
2023-01-21T14:50:55.799Z,1.60
2023-01-21T14:53:47.781Z,2.17
2023-01-21T14:56:36.170Z,2.07
2023-01-21T14:59:37.381Z,1.70
2023-01-21T15:02:30.467Z,2.40
2023-01-21T15:05:24.148Z,1.30
2023-01-21T15:08:19.541Z,1.50
2023-01-21T15:11:09.660Z,1.13
2023-01-21T15:14:07.436Z,1.70
2023-01-21T15:16:54.646Z,1.00
2023-01-21T15:19:42.056Z,1.70
2023-01-21T15:22:46.625Z,2.00
2023-01-21T15:25:36.752Z,1.67
2023-01-21T15:28:44.787Z,1.53
2023-01-21T15:31:44.675Z,1.23
2023-01-21T15:34:35.855Z,1.70
2023-01-21T15:37:25.652Z,1.90
2023-01-21T15:40:19.834Z,1.43
2023-01-21T15:43:16.833Z,2.00
2023-01-21T15:46:20.101Z,1.50
2023-01-21T15:49:25.051Z,2.13
2023-01-21T15:52:30.467Z,1.87
2023-01-21T15:55:38.540Z,2.87
2023-01-21T15:58:35.398Z,2.10
2023-01-21T16:01:34.059Z,2.13
2023-01-21T16:04:35.324Z,2.63
2023-01-21T16:07:34.068Z,2.80
2023-01-21T16:10:32.305Z,2.93
2023-01-21T16:13:32.303Z,1.70
2023-01-21T16:16:35.023Z,2.33
2023-01-21T16:19:24.664Z,1.70
2023-01-21T16:22:13.158Z,2.03
2023-01-21T16:25:03.574Z,2.17
2023-01-21T16:27:54.763Z,2.20
2023-01-21T16:30:52.662Z,2.07
2023-01-21T16:33:42.653Z,2.60
2023-01-21T16:36:38.273Z,2.53
2023-01-21T16:39:25.811Z,1.87
2023-01-21T16:42:32.064Z,3.07
2023-01-21T16:45:22.076Z,2.87
2023-01-21T16:48:21.401Z,2.10
2023-01-21T16:51:19.247Z,2.30
2023-01-21T16:54:26.926Z,2.67
2023-01-21T16:57:25.619Z,2.10
2023-01-21T17:00:24.304Z,2.37
2023-01-21T17:03:13.288Z,2.17
2023-01-21T17:06:04.000Z,2.80
2023-01-21T17:08:56.371Z,3.07
2023-01-21T17:11:47.872Z,3.10
2023-01-21T17:14:37.713Z,2.63
2023-01-21T17:17:27.098Z,2.90
2023-01-21T17:20:36.979Z,3.37
2023-01-21T17:23:28.314Z,2.37
2023-01-21T17:26:19.337Z,3.40
2023-01-21T17:29:12.501Z,2.73
2023-01-21T17:32:01.385Z,3.33
2023-01-21T17:35:05.543Z,3.90
2023-01-21T17:37:57.672Z,3.77
2023-01-21T17:41:01.046Z,3.30
2023-01-21T17:43:51.864Z,3.20
2023-01-21T17:46:45.887Z,3.33
2023-01-21T17:49:33.325Z,3.53
2023-01-21T17:52:22.319Z,4.27
2023-01-21T17:55:16.134Z,2.90
2023-01-21T17:58:05.757Z,4.23
2023-01-21T18:00:54.318Z,3.40
2023-01-21T18:03:41.543Z,2.70
2023-01-21T18:06:29.921Z,4.00
2023-01-21T18:09:19.542Z,2.90
2023-01-21T18:12:07.558Z,3.10
2023-01-21T18:14:54.826Z,3.27
2023-01-21T18:17:46.737Z,3.43
2023-01-21T18:20:34.230Z,3.07
2023-01-21T18:23:21.776Z,3.80
2023-01-21T18:26:17.744Z,2.77
2023-01-21T18:29:05.235Z,2.87
2023-01-21T18:31:52.531Z,3.47
2023-01-21T18:34:41.273Z,2.30
2023-01-21T18:37:28.595Z,2.60
2023-01-21T18:40:18.251Z,2.53
2023-01-21T18:43:05.357Z,2.17
2023-01-21T18:45:54.402Z,2.37
2023-01-21T18:48:42.776Z,2.77
2023-01-21T18:51:32.194Z,2.07
2023-01-21T18:54:20.004Z,2.57
2023-01-21T18:57:10.848Z,3.30
2023-01-21T19:00:00.041Z,2.50
2023-01-21T19:02:47.359Z,3.27
2023-01-21T19:05:37.287Z,2.57
2023-01-21T19:08:28.379Z,4.33
2023-01-21T19:11:16.397Z,3.73
2023-01-21T19:14:03.837Z,2.70
2023-01-21T19:16:51.418Z,3.10
2023-01-21T19:19:38.926Z,2.37
2023-01-21T19:22:26.523Z,2.53
2023-01-21T19:25:15.658Z,2.70
2023-01-21T19:28:05.323Z,2.90
2023-01-21T19:30:55.313Z,2.63
2023-01-21T19:33:45.427Z,2.43
2023-01-21T19:36:32.929Z,3.23
2023-01-21T19:39:23.560Z,2.70
2023-01-21T19:42:14.268Z,2.60
2023-01-21T19:45:01.367Z,1.70
2023-01-21T19:47:50.578Z,2.00
2023-01-21T19:50:38.170Z,2.27
2023-01-21T19:53:25.136Z,2.63
2023-01-21T19:56:17.106Z,2.40
2023-01-21T19:59:05.776Z,2.57
2023-01-21T20:01:53.047Z,2.70
2023-01-21T20:04:40.681Z,2.17
2023-01-21T20:07:28.106Z,2.10
2023-01-21T20:10:16.824Z,1.67
2023-01-21T20:13:04.890Z,2.87
2023-01-21T20:15:54.106Z,2.63
2023-01-21T20:18:42.294Z,2.70
2023-01-21T20:21:29.551Z,2.57
2023-01-21T20:24:17.176Z,2.20
2023-01-21T20:27:08.565Z,2.50
2023-01-21T20:30:14.843Z,2.30
2023-01-21T20:33:04.687Z,2.60
2023-01-21T20:35:54.445Z,3.20
2023-01-21T20:38:42.149Z,2.30
2023-01-21T20:41:29.459Z,2.17
2023-01-21T20:44:16.720Z,2.33
2023-01-21T20:47:05.030Z,2.67
2023-01-21T20:49:53.472Z,2.73
2023-01-21T20:52:40.518Z,2.13
2023-01-21T20:55:29.195Z,2.80
2023-01-21T20:58:17.920Z,2.60
2023-01-21T21:01:05.851Z,2.77
2023-01-21T21:03:53.555Z,2.20
2023-01-21T21:06:45.618Z,2.53
2023-01-21T21:09:36.161Z,2.57
2023-01-21T21:12:23.508Z,2.60
2023-01-21T21:15:12.957Z,2.53
2023-01-21T21:18:00.793Z,2.13
2023-01-21T21:20:47.834Z,2.30
2023-01-21T21:23:36.700Z,2.77
2023-01-21T21:26:25.560Z,2.47
2023-01-21T21:29:14.117Z,2.50
2023-01-21T21:32:02.436Z,2.00
2023-01-21T21:34:51.276Z,2.53
2023-01-21T21:37:38.771Z,2.50
2023-01-21T21:40:29.217Z,2.50
2023-01-21T21:43:32.841Z,2.13
2023-01-21T21:46:37.401Z,2.17
2023-01-21T21:49:24.641Z,2.43
2023-01-21T21:52:17.182Z,2.27
2023-01-21T21:55:04.876Z,2.53
2023-01-21T21:57:53.721Z,2.17
2023-01-21T22:00:40.985Z,2.33
2023-01-21T22:03:28.281Z,2.10
2023-01-21T22:06:17.694Z,2.30
2023-01-21T22:09:05.458Z,1.90
2023-01-21T22:11:52.936Z,3.00
2023-01-21T22:14:41.673Z,2.67
2023-01-21T22:17:29.076Z,2.03
2023-01-21T22:20:16.440Z,2.37
2023-01-21T22:23:03.522Z,2.23
2023-01-21T22:25:51.163Z,2.77
2023-01-21T22:28:39.755Z,2.27
2023-01-21T22:31:31.191Z,2.57
2023-01-21T22:34:18.582Z,2.50
2023-01-21T22:37:05.858Z,2.43
2023-01-21T22:39:53.340Z,2.27
2023-01-21T22:42:40.865Z,2.33
2023-01-21T22:45:28.362Z,2.37
2023-01-21T22:48:17.425Z,2.53
2023-01-21T22:51:04.885Z,2.13
2023-01-21T22:53:53.398Z,2.73
2023-01-21T22:56:52.140Z,2.40
2023-01-21T22:59:40.346Z,2.30
2023-01-21T23:02:27.633Z,2.93
2023-01-21T23:05:16.788Z,2.00
2023-01-21T23:08:04.024Z,2.63
2023-01-21T23:11:00.151Z,2.70
2023-01-21T23:13:49.048Z,2.67
2023-01-21T23:16:36.157Z,2.40
2023-01-21T23:19:23.694Z,2.60
2023-01-21T23:22:12.527Z,2.40
2023-01-21T23:24:59.901Z,3.47
2023-01-21T23:27:47.327Z,2.70
2023-01-21T23:30:35.248Z,2.50
2023-01-21T23:33:22.391Z,2.37
2023-01-21T23:36:12.725Z,2.30
2023-01-21T23:39:01.590Z,2.17
2023-01-21T23:41:48.907Z,2.20
2023-01-21T23:44:36.432Z,2.20
2023-01-21T23:47:24.340Z,2.30
2023-01-21T23:50:13.805Z,2.30
2023-01-21T23:53:01.465Z,2.20
2023-01-21T23:55:50.255Z,2.53
2023-01-21T23:58:37.470Z,2.27
